sensor_id;sensor_type;location;lat;lon;timestamp;P1;P2;P0
49686;PMS5003;36064;38.180;-122.272;2022-09-03T00:00:04;34.6;29.6;
49686;PMS5003;36064;38.180;-122.272;2022-09-03T00:05:03;38.2;30.4;
49686;PMS5003;36064;38.180;-122.272;2022-09-03T00:10:02;37.4;32.2;
49686;PMS5003;36064;38.180;-122.272;2022-09-03T00:15:03;37.6;30.0;
49686;PMS5003;36064;38.180;-122.272;2022-09-03T00:20:02;28.8;27.0;
49686;PMS5003;36064;38.180;-122.272;2022-09-03T00:25:01;26.0;24.4;
49686;PMS5003;36064;38.180;-122.272;2022-09-03T00:30:02;29.6;27.6;
49686;PMS5003;36064;38.180;-122.272;2022-09-03T00:35:02;30.2;27.4;
49686;PMS5003;36064;38.180;-122.272;2022-09-03T00:40:00;30.6;28.2;
49686;PMS5003;36064;38.180;-122.272;2022-09-03T00:45:03;28.6;27.4;
49686;PMS5003;36064;38.180;-122.272;2022-09-03T00:50:03;30.0;27.4;
49686;PMS5003;36064;38.180;-122.272;2022-09-03T00:55:02;31.45;27.26;
49686;PMS5003;36064;38.180;-122.272;2022-09-03T01:00:04;30.6;28.2;
49686;PMS5003;36064;38.180;-122.272;2022-09-03T01:05:02;30.6;28.0;
49686;PMS5003;36064;38.180;-122.272;2022-09-03T01:10:03;29.2;26.4;
49686;PMS5003;36064;38.180;-122.272;2022-09-03T01:15:04;23.4;22.2;
49686;PMS5003;36064;38.180;-122.272;2022-09-03T01:30:02;27.2;22.4;
49686;PMS5003;36064;38.180;-122.272;2022-09-03T01:35:02;22.2;20.4;
49686;PMS5003;36064;38.180;-122.272;2022-09-03T01:40:02;28.6;24.8;
49686;PMS5003;36064;38.180;-122.272;2022-09-03T01:50:02;27.58;25.0;
49686;PMS5003;36064;38.180;-122.272;2022-09-03T01:55:04;25.0;22.6;
49686;PMS5003;36064;38.180;-122.272;2022-09-03T02:00:02;26.4;25.4;
49686;PMS5003;36064;38.180;-122.272;2022-09-03T02:05:02;20.6;22.2;
49686;PMS5003;36064;38.180;-122.272;2022-09-03T02:10:01;24.6;23.2;
49686;PMS5003;36064;38.180;-122.272;2022-09-03T02:15:01;24.2;21.8;
49686;PMS5003;36064;38.180;-122.272;2022-09-03T02:20:03;27.4;24.8;
49686;PMS5003;36064;38.180;-122.272;2022-09-03T02:25:00;28.8;27.0;
49686;PMS5003;36064;38.180;-122.272;2022-09-03T02:30:00;26.4;23.0;
49686;PMS5003;36064;38.180;-122.272;2022-09-03T02:35:00;27.4;25.2;
49686;PMS5003;36064;38.180;-122.272;2022-09-03T02:40:00;25.82;25.43;
49686;PMS5003;36064;38.180;-122.272;2022-09-03T02:45:02;27.38;25.8;
49686;PMS5003;36064;38.180;-122.272;2022-09-03T02:50:00;29.4;26.0;
49686;PMS5003;36064;38.180;-122.272;2022-09-03T02:55:00;28.2;26.6;
49686;PMS5003;36064;38.180;-122.272;2022-09-03T03:00:01;23.6;22.8;
49686;PMS5003;36064;38.180;-122.272;2022-09-03T03:05:00;23.2;22.8;
49686;PMS5003;36064;38.180;-122.272;2022-09-03T03:10:00;24.2;22.6;
49686;PMS5003;36064;38.180;-122.272;2022-09-03T03:15:01;27.4;26.2;
49686;PMS5003;36064;38.180;-122.272;2022-09-03T03:20:01;28.8;25.0;
49686;PMS5003;36064;38.180;-122.272;2022-09-03T03:25:00;31.6;26.8;
49686;PMS5003;36064;38.180;-122.272;2022-09-03T03:30:00;24.8;23.0;
49686;PMS5003;36064;38.180;-122.272;2022-09-03T03:35:01;22.2;21.0;
49686;PMS5003;36064;38.180;-122.272;2022-09-03T03:40:00;29.2;28.4;
49686;PMS5003;36064;38.180;-122.272;2022-09-03T03:45:01;24.8;25.4;
49686;PMS5003;36064;38.180;-122.272;2022-09-03T03:50:01;26.0;24.6;
49686;PMS5003;36064;38.180;-122.272;2022-09-03T03:55:00;26.8;23.6;
49686;PMS5003;36064;38.180;-122.272;2022-09-03T04:00:01;30.0;25.4;
49686;PMS5003;36064;38.180;-122.272;2022-09-03T04:05:01;23.8;20.6;
49686;PMS5003;36064;38.180;-122.272;2022-09-03T04:10:00;25.6;23.6;
49686;PMS5003;36064;38.180;-122.272;2022-09-03T04:15:00;25.4;22.8;
49686;PMS5003;36064;38.180;-122.272;2022-09-03T04:20:00;20.6;19.4;
49686;PMS5003;36064;38.180;-122.272;2022-09-03T04:25:00;22.4;20.2;
49686;PMS5003;36064;38.180;-122.272;2022-09-03T04:30:00;28.6;26.2;
49686;PMS5003;36064;38.180;-122.272;2022-09-03T04:35:00;26.0;24.4;
49686;PMS5003;36064;38.180;-122.272;2022-09-03T04:40:00;27.4;21.8;
49686;PMS5003;36064;38.180;-122.272;2022-09-03T04:45:00;25.8;22.2;
49686;PMS5003;36064;38.180;-122.272;2022-09-03T04:50:00;25.2;22.0;
49686;PMS5003;36064;38.180;-122.272;2022-09-03T04:55:00;23.6;22.6;
49686;PMS5003;36064;38.180;-122.272;2022-09-03T05:00:00;17.8;17.0;
49686;PMS5003;36064;38.180;-122.272;2022-09-03T05:05:00;20.6;17.4;
49686;PMS5003;36064;38.180;-122.272;2022-09-03T05:10:00;21.6;19.4;
49686;PMS5003;36064;38.180;-122.272;2022-09-03T05:15:01;24.4;22.6;
49686;PMS5003;36064;38.180;-122.272;2022-09-03T05:20:00;21.97;19.38;
49686;PMS5003;36064;38.180;-122.272;2022-09-03T05:25:00;18.02;16.83;
49686;PMS5003;36064;38.180;-122.272;2022-09-03T05:30:00;18.8;16.6;
49686;PMS5003;36064;38.180;-122.272;2022-09-03T05:35:00;17.0;16.2;
49686;PMS5003;36064;38.180;-122.272;2022-09-03T05:40:01;21.01;18.4;
49686;PMS5003;36064;38.180;-122.272;2022-09-03T05:45:00;17.97;16.37;
49686;PMS5003;36064;38.180;-122.272;2022-09-03T05:50:00;18.2;17.6;
49686;PMS5003;36064;38.180;-122.272;2022-09-03T05:55:01;16.2;15.8;
49686;PMS5003;36064;38.180;-122.272;2022-09-03T06:00:00;23.2;19.6;
49686;PMS5003;36064;38.180;-122.272;2022-09-03T06:05:00;22.38;16.98;
49686;PMS5003;36064;38.180;-122.272;2022-09-03T06:10:00;15.79;14.99;
49686;PMS5003;36064;38.180;-122.272;2022-09-03T06:15:00;14.79;14.39;
49686;PMS5003;36064;38.180;-122.272;2022-09-03T06:20:00;16.2;16.4;
49686;PMS5003;36064;38.180;-122.272;2022-09-03T06:25:00;17.4;16.6;
49686;PMS5003;36064;38.180;-122.272;2022-09-03T06:30:00;20.4;18.2;
49686;PMS5003;36064;38.180;-122.272;2022-09-03T06:35:00;16.8;14.6;
49686;PMS5003;36064;38.180;-122.272;2022-09-03T06:40:00;18.8;18.6;
49686;PMS5003;36064;38.180;-122.272;2022-09-03T06:45:00;19.6;18.0;
49686;PMS5003;36064;38.180;-122.272;2022-09-03T06:50:00;17.4;16.0;
49686;PMS5003;36064;38.180;-122.272;2022-09-03T06:55:00;16.2;14.6;
49686;PMS5003;36064;38.180;-122.272;2022-09-03T07:00:00;19.6;17.4;
49686;PMS5003;36064;38.180;-122.272;2022-09-03T07:05:01;18.4;17.6;
49686;PMS5003;36064;38.180;-122.272;2022-09-03T07:10:00;18.6;17.6;
49686;PMS5003;36064;38.180;-122.272;2022-09-03T07:15:00;18.6;17.6;
49686;PMS5003;36064;38.180;-122.272;2022-09-03T07:20:00;23.0;22.2;
49686;PMS5003;36064;38.180;-122.272;2022-09-03T07:25:00;22.6;18.4;
49686;PMS5003;36064;38.180;-122.272;2022-09-03T07:30:00;21.4;19.2;
49686;PMS5003;36064;38.180;-122.272;2022-09-03T07:35:00;20.0;17.6;
49686;PMS5003;36064;38.180;-122.272;2022-09-03T07:40:01;21.8;21.0;
49686;PMS5003;36064;38.180;-122.272;2022-09-03T07:45:00;20.6;18.2;
49686;PMS5003;36064;38.180;-122.272;2022-09-03T07:50:00;22.2;19.0;
49686;PMS5003;36064;38.180;-122.272;2022-09-03T07:55:00;18.2;16.8;
49686;PMS5003;36064;38.180;-122.272;2022-09-03T08:00:00;21.4;19.0;
49686;PMS5003;36064;38.180;-122.272;2022-09-03T08:05:00;21.6;20.8;
49686;PMS5003;36064;38.180;-122.272;2022-09-03T08:10:00;20.4;18.0;
49686;PMS5003;36064;38.180;-122.272;2022-09-03T08:15:00;21.0;19.2;
49686;PMS5003;36064;38.180;-122.272;2022-09-03T08:20:01;18.6;17.0;
49686;PMS5003;36064;38.180;-122.272;2022-09-03T08:25:00;18.6;16.2;
49686;PMS5003;36064;38.180;-122.272;2022-09-03T08:30:00;19.2;18.6;
49686;PMS5003;36064;38.180;-122.272;2022-09-03T08:35:00;23.4;18.0;
49686;PMS5003;36064;38.180;-122.272;2022-09-03T08:40:01;24.0;23.2;
49686;PMS5003;36064;38.180;-122.272;2022-09-03T08:45:01;22.2;21.0;
49686;PMS5003;36064;38.180;-122.272;2022-09-03T08:50:02;24.8;21.4;
49686;PMS5003;36064;38.180;-122.272;2022-09-03T08:55:06;22.0;19.8;
49686;PMS5003;36064;38.180;-122.272;2022-09-03T09:00:00;17.4;16.8;
49686;PMS5003;36064;38.180;-122.272;2022-09-03T09:05:02;19.6;16.6;
49686;PMS5003;36064;38.180;-122.272;2022-09-03T09:10:02;26.2;22.4;
49686;PMS5003;36064;38.180;-122.272;2022-09-03T09:15:06;20.8;18.4;
49686;PMS5003;36064;38.180;-122.272;2022-09-03T09:20:03;19.0;16.6;
49686;PMS5003;36064;38.180;-122.272;2022-09-03T09:25:01;24.0;19.6;
49686;PMS5003;36064;38.180;-122.272;2022-09-03T09:30:00;24.0;21.2;
49686;PMS5003;36064;38.180;-122.272;2022-09-03T09:35:00;19.6;17.6;
49686;PMS5003;36064;38.180;-122.272;2022-09-03T09:40:01;17.8;17.4;
49686;PMS5003;36064;38.180;-122.272;2022-09-03T09:45:07;22.6;21.0;
49686;PMS5003;36064;38.180;-122.272;2022-09-03T09:50:01;19.6;18.4;
49686;PMS5003;36064;38.180;-122.272;2022-09-03T09:55:06;20.8;19.0;
49686;PMS5003;36064;38.180;-122.272;2022-09-03T10:00:03;27.21;23.6;
49686;PMS5003;36064;38.180;-122.272;2022-09-03T10:05:10;20.62;18.22;
49686;PMS5003;36064;38.180;-122.272;2022-09-03T10:10:02;16.8;15.8;
49686;PMS5003;36064;38.180;-122.272;2022-09-03T10:15:02;20.6;19.2;
49686;PMS5003;36064;38.180;-122.272;2022-09-03T10:20:03;21.8;18.4;
49686;PMS5003;36064;38.180;-122.272;2022-09-03T10:25:01;20.0;17.8;
49686;PMS5003;36064;38.180;-122.272;2022-09-03T10:30:00;18.21;17.39;
49686;PMS5003;36064;38.180;-122.272;2022-09-03T10:35:03;19.2;17.6;
49686;PMS5003;36064;38.180;-122.272;2022-09-03T10:40:05;14.2;13.2;
49686;PMS5003;36064;38.180;-122.272;2022-09-03T10:45:02;15.2;14.6;
49686;PMS5003;36064;38.180;-122.272;2022-09-03T10:50:02;16.0;15.0;
49686;PMS5003;36064;38.180;-122.272;2022-09-03T10:55:05;14.8;13.0;
49686;PMS5003;36064;38.180;-122.272;2022-09-03T11:00:03;12.4;11.8;
49686;PMS5003;36064;38.180;-122.272;2022-09-03T11:05:01;14.2;11.4;
49686;PMS5003;36064;38.180;-122.272;2022-09-03T11:10:04;14.2;9.6;
49686;PMS5003;36064;38.180;-122.272;2022-09-03T11:15:02;14.2;12.2;
49686;PMS5003;36064;38.180;-122.272;2022-09-03T11:20:03;14.4;14.0;
49686;PMS5003;36064;38.180;-122.272;2022-09-03T11:25:00;14.2;12.0;
49686;PMS5003;36064;38.180;-122.272;2022-09-03T11:30:01;16.6;16.4;
49686;PMS5003;36064;38.180;-122.272;2022-09-03T11:35:00;16.2;14.6;
49686;PMS5003;36064;38.180;-122.272;2022-09-03T11:40:03;16.6;15.2;
49686;PMS5003;36064;38.180;-122.272;2022-09-03T11:50:04;16.0;15.0;
49686;PMS5003;36064;38.180;-122.272;2022-09-03T11:55:00;16.0;15.2;
49686;PMS5003;36064;38.180;-122.272;2022-09-03T12:00:08;13.8;13.4;
49686;PMS5003;36064;38.180;-122.272;2022-09-03T12:05:06;14.0;12.6;
49686;PMS5003;36064;38.180;-122.272;2022-09-03T12:10:04;13.4;12.6;
49686;PMS5003;36064;38.180;-122.272;2022-09-03T12:15:02;11.0;10.8;
49686;PMS5003;36064;38.180;-122.272;2022-09-03T12:20:01;13.2;11.6;
49686;PMS5003;36064;38.180;-122.272;2022-09-03T12:25:06;14.4;13.0;
49686;PMS5003;36064;38.180;-122.272;2022-09-03T12:30:01;20.2;17.6;
49686;PMS5003;36064;38.180;-122.272;2022-09-03T12:35:09;18.0;16.2;
49686;PMS5003;36064;38.180;-122.272;2022-09-03T12:40:00;16.8;15.2;
49686;PMS5003;36064;38.180;-122.272;2022-09-03T12:45:04;19.0;17.6;
49686;PMS5003;36064;38.180;-122.272;2022-09-03T12:50:06;22.2;19.8;
49686;PMS5003;36064;38.180;-122.272;2022-09-03T12:55:03;17.2;15.4;
49686;PMS5003;36064;38.180;-122.272;2022-09-03T13:00:03;16.6;15.2;
49686;PMS5003;36064;38.180;-122.272;2022-09-03T13:05:00;15.4;14.4;
49686;PMS5003;36064;38.180;-122.272;2022-09-03T13:10:02;16.2;13.8;
49686;PMS5003;36064;38.180;-122.272;2022-09-03T13:15:04;14.4;14.2;
49686;PMS5003;36064;38.180;-122.272;2022-09-03T13:20:09;13.8;10.4;
49686;PMS5003;36064;38.180;-122.272;2022-09-03T13:25:07;18.2;16.4;
49686;PMS5003;36064;38.180;-122.272;2022-09-03T13:30:03;12.4;10.0;
49686;PMS5003;36064;38.180;-122.272;2022-09-03T13:35:03;12.0;11.0;
49686;PMS5003;36064;38.180;-122.272;2022-09-03T13:40:02;10.8;10.4;
49686;PMS5003;36064;38.180;-122.272;2022-09-03T13:45:02;12.6;10.6;
49686;PMS5003;36064;38.180;-122.272;2022-09-03T13:50:02;11.4;7.6;
49686;PMS5003;36064;38.180;-122.272;2022-09-03T13:55:03;13.6;10.0;
49686;PMS5003;36064;38.180;-122.272;2022-09-03T14:00:03;12.6;11.0;
49686;PMS5003;36064;38.180;-122.272;2022-09-03T14:05:02;9.2;8.2;
49686;PMS5003;36064;38.180;-122.272;2022-09-03T14:10:03;8.0;7.6;
49686;PMS5003;36064;38.180;-122.272;2022-09-03T14:15:02;8.0;5.8;
49686;PMS5003;36064;38.180;-122.272;2022-09-03T14:20:02;9.0;7.4;
49686;PMS5003;36064;38.180;-122.272;2022-09-03T14:25:01;11.2;8.2;
49686;PMS5003;36064;38.180;-122.272;2022-09-03T14:30:01;10.8;10.0;
49686;PMS5003;36064;38.180;-122.272;2022-09-03T14:35:09;9.71;9.32;
49686;PMS5003;36064;38.180;-122.272;2022-09-03T14:40:04;13.6;11.6;
49686;PMS5003;36064;38.180;-122.272;2022-09-03T14:45:07;14.2;13.6;
49686;PMS5003;36064;38.180;-122.272;2022-09-03T14:50:03;15.2;14.8;
49686;PMS5003;36064;38.180;-122.272;2022-09-03T14:55:06;17.8;16.0;
49686;PMS5003;36064;38.180;-122.272;2022-09-03T15:00:03;19.2;18.8;
49686;PMS5003;36064;38.180;-122.272;2022-09-03T15:05:05;21.8;20.2;
49686;PMS5003;36064;38.180;-122.272;2022-09-03T15:10:04;17.8;16.6;
49686;PMS5003;36064;38.180;-122.272;2022-09-03T15:15:04;18.2;15.6;
49686;PMS5003;36064;38.180;-122.272;2022-09-03T15:25:04;21.0;19.4;
49686;PMS5003;36064;38.180;-122.272;2022-09-03T15:30:04;15.0;14.6;
49686;PMS5003;36064;38.180;-122.272;2022-09-03T15:35:04;13.4;13.0;
49686;PMS5003;36064;38.180;-122.272;2022-09-03T15:40:05;13.6;12.4;
49686;PMS5003;36064;38.180;-122.272;2022-09-03T15:45:02;12.6;10.2;
49686;PMS5003;36064;38.180;-122.272;2022-09-03T15:50:01;13.4;12.4;
49686;PMS5003;36064;38.180;-122.272;2022-09-03T15:55:04;12.0;11.2;
49686;PMS5003;36064;38.180;-122.272;2022-09-03T16:00:02;12.4;10.8;
49686;PMS5003;36064;38.180;-122.272;2022-09-03T16:05:03;9.4;7.8;
49686;PMS5003;36064;38.180;-122.272;2022-09-03T16:10:05;10.6;8.8;
49686;PMS5003;36064;38.180;-122.272;2022-09-03T16:15:02;10.8;7.2;
49686;PMS5003;36064;38.180;-122.272;2022-09-03T16:20:03;13.0;11.6;
49686;PMS5003;36064;38.180;-122.272;2022-09-03T16:25:01;11.2;10.8;
49686;PMS5003;36064;38.180;-122.272;2022-09-03T16:30:02;9.0;8.6;
49686;PMS5003;36064;38.180;-122.272;2022-09-03T16:35:03;7.8;7.8;
49686;PMS5003;36064;38.180;-122.272;2022-09-03T16:40:04;10.2;9.2;
49686;PMS5003;36064;38.180;-122.272;2022-09-03T16:45:10;9.4;8.8;
49686;PMS5003;36064;38.180;-122.272;2022-09-03T16:50:03;8.8;7.2;
49686;PMS5003;36064;38.180;-122.272;2022-09-03T16:55:04;7.8;6.2;
49686;PMS5003;36064;38.180;-122.272;2022-09-03T17:00:02;7.6;7.2;
49686;PMS5003;36064;38.180;-122.272;2022-09-03T17:05:09;9.2;8.4;
49686;PMS5003;36064;38.180;-122.272;2022-09-03T17:10:02;6.2;5.4;
49686;PMS5003;36064;38.180;-122.272;2022-09-03T17:20:03;9.0;8.0;
49686;PMS5003;36064;38.180;-122.272;2022-09-03T17:25:01;9.2;7.8;
49686;PMS5003;36064;38.180;-122.272;2022-09-03T17:30:03;9.0;9.8;
49686;PMS5003;36064;38.180;-122.272;2022-09-03T17:35:06;10.2;8.4;
49686;PMS5003;36064;38.180;-122.272;2022-09-03T17:45:04;8.4;8.0;
49686;PMS5003;36064;38.180;-122.272;2022-09-03T17:50:06;8.2;7.8;
49686;PMS5003;36064;38.180;-122.272;2022-09-03T17:55:02;8.8;7.4;
49686;PMS5003;36064;38.180;-122.272;2022-09-03T18:00:02;7.2;5.8;
49686;PMS5003;36064;38.180;-122.272;2022-09-03T18:05:03;8.8;6.4;
49686;PMS5003;36064;38.180;-122.272;2022-09-03T18:10:02;9.2;9.2;
49686;PMS5003;36064;38.180;-122.272;2022-09-03T18:15:03;7.8;9.2;
49686;PMS5003;36064;38.180;-122.272;2022-09-03T18:20:02;8.6;8.2;
49686;PMS5003;36064;38.180;-122.272;2022-09-03T18:25:01;9.6;8.0;
49686;PMS5003;36064;38.180;-122.272;2022-09-03T18:30:02;8.6;8.0;
49686;PMS5003;36064;38.180;-122.272;2022-09-03T18:35:00;11.0;10.2;
49686;PMS5003;36064;38.180;-122.272;2022-09-03T18:40:00;9.82;9.62;
49686;PMS5003;36064;38.180;-122.272;2022-09-03T18:45:02;10.4;9.2;
49686;PMS5003;36064;38.180;-122.272;2022-09-03T18:50:03;10.6;11.6;
49686;PMS5003;36064;38.180;-122.272;2022-09-03T18:55:02;13.8;12.2;
49686;PMS5003;36064;38.180;-122.272;2022-09-03T19:00:03;11.2;10.6;
49686;PMS5003;36064;38.180;-122.272;2022-09-03T19:05:04;10.71;8.8;
49686;PMS5003;36064;38.180;-122.272;2022-09-03T19:10:02;12.6;11.8;
49686;PMS5003;36064;38.180;-122.272;2022-09-03T19:15:01;11.4;10.8;
49686;PMS5003;36064;38.180;-122.272;2022-09-03T19:20:02;12.6;12.0;
49686;PMS5003;36064;38.180;-122.272;2022-09-03T19:25:02;11.19;10.99;
49686;PMS5003;36064;38.180;-122.272;2022-09-03T19:30:02;11.0;9.8;
49686;PMS5003;36064;38.180;-122.272;2022-09-03T19:35:04;11.4;11.2;
49686;PMS5003;36064;38.180;-122.272;2022-09-03T19:45:02;13.6;12.0;
49686;PMS5003;36064;38.180;-122.272;2022-09-03T19:50:03;9.4;8.8;
49686;PMS5003;36064;38.180;-122.272;2022-09-03T19:55:00;13.4;13.4;
49686;PMS5003;36064;38.180;-122.272;2022-09-03T20:00:01;12.4;11.2;
49686;PMS5003;36064;38.180;-122.272;2022-09-03T20:05:01;11.2;10.4;
49686;PMS5003;36064;38.180;-122.272;2022-09-03T20:10:02;10.0;11.2;
49686;PMS5003;36064;38.180;-122.272;2022-09-03T20:15:01;9.6;10.2;
49686;PMS5003;36064;38.180;-122.272;2022-09-03T20:20:10;11.8;11.8;
49686;PMS5003;36064;38.180;-122.272;2022-09-03T20:25:04;10.8;9.2;
49686;PMS5003;36064;38.180;-122.272;2022-09-03T20:30:01;11.6;11.2;
49686;PMS5003;36064;38.180;-122.272;2022-09-03T20:35:02;12.2;11.4;
49686;PMS5003;36064;38.180;-122.272;2022-09-03T20:40:05;9.8;8.6;
49686;PMS5003;36064;38.180;-122.272;2022-09-03T20:45:02;9.0;8.0;
49686;PMS5003;36064;38.180;-122.272;2022-09-03T20:50:02;11.2;10.8;
49686;PMS5003;36064;38.180;-122.272;2022-09-03T20:55:02;7.2;7.2;
49686;PMS5003;36064;38.180;-122.272;2022-09-03T21:00:03;12.0;11.4;
49686;PMS5003;36064;38.180;-122.272;2022-09-03T21:05:02;11.8;11.2;
49686;PMS5003;36064;38.180;-122.272;2022-09-03T21:10:02;7.2;6.8;
49686;PMS5003;36064;38.180;-122.272;2022-09-03T21:15:03;9.8;8.2;
49686;PMS5003;36064;38.180;-122.272;2022-09-03T21:20:04;11.8;9.8;
49686;PMS5003;36064;38.180;-122.272;2022-09-03T21:25:01;11.41;11.0;
49686;PMS5003;36064;38.180;-122.272;2022-09-03T21:30:03;9.4;8.0;
49686;PMS5003;36064;38.180;-122.272;2022-09-03T21:35:03;8.0;7.4;
49686;PMS5003;36064;38.180;-122.272;2022-09-03T21:40:01;10.0;10.0;
49686;PMS5003;36064;38.180;-122.272;2022-09-03T21:45:01;6.8;6.8;
49686;PMS5003;36064;38.180;-122.272;2022-09-03T21:50:04;7.4;7.4;
49686;PMS5003;36064;38.180;-122.272;2022-09-03T21:55:01;9.0;8.59;
49686;PMS5003;36064;38.180;-122.272;2022-09-03T22:00:07;5.99;5.79;
49686;PMS5003;36064;38.180;-122.272;2022-09-03T22:05:00;7.19;6.79;
49686;PMS5003;36064;38.180;-122.272;2022-09-03T22:10:02;7.2;7.2;
49686;PMS5003;36064;38.180;-122.272;2022-09-03T22:15:00;7.8;7.8;
49686;PMS5003;36064;38.180;-122.272;2022-09-03T22:20:02;7.0;7.0;
49686;PMS5003;36064;38.180;-122.272;2022-09-03T22:25:02;7.4;7.4;
49686;PMS5003;36064;38.180;-122.272;2022-09-03T22:30:02;8.2;7.0;
49686;PMS5003;36064;38.180;-122.272;2022-09-03T22:40:04;7.8;7.0;
49686;PMS5003;36064;38.180;-122.272;2022-09-03T22:45:05;10.0;8.8;
49686;PMS5003;36064;38.180;-122.272;2022-09-03T22:50:02;7.6;7.6;
49686;PMS5003;36064;38.180;-122.272;2022-09-03T22:55:06;8.6;8.6;
49686;PMS5003;36064;38.180;-122.272;2022-09-03T23:00:02;7.0;5.4;
49686;PMS5003;36064;38.180;-122.272;2022-09-03T23:05:03;7.4;7.2;
49686;PMS5003;36064;38.180;-122.272;2022-09-03T23:10:02;7.0;5.2;
49686;PMS5003;36064;38.180;-122.272;2022-09-03T23:15:00;9.0;8.4;
49686;PMS5003;36064;38.180;-122.272;2022-09-03T23:20:02;8.0;5.6;
49686;PMS5003;36064;38.180;-122.272;2022-09-03T23:25:03;7.2;6.0;
49686;PMS5003;36064;38.180;-122.272;2022-09-03T23:30:00;6.2;5.8;
49686;PMS5003;36064;38.180;-122.272;2022-09-03T23:35:01;5.2;5.0;
49686;PMS5003;36064;38.180;-122.272;2022-09-03T23:40:06;5.8;5.0;
49686;PMS5003;36064;38.180;-122.272;2022-09-03T23:45:04;7.4;6.6;
49686;PMS5003;36064;38.180;-122.272;2022-09-03T23:50:05;4.8;4.4;
49686;PMS5003;36064;38.180;-122.272;2022-09-03T23:55:02;5.8;5.0;
